createdAt,value
2019-02-21T00:00:23.947Z,22.37
2019-02-21T00:02:47.040Z,19.55
2019-02-21T00:05:16.313Z,21.90
2019-02-21T00:07:45.937Z,23.55
2019-02-21T00:10:15.234Z,20.25
2019-02-21T00:12:44.534Z,19.92
2019-02-21T00:15:13.809Z,16.95
2019-02-21T00:17:43.346Z,23.35
2019-02-21T00:20:12.616Z,24.80
2019-02-21T00:22:41.912Z,24.37
2019-02-21T00:25:11.177Z,21.02
2019-02-21T00:27:40.462Z,20.10
2019-02-21T00:30:10.149Z,21.95
2019-02-21T00:32:39.439Z,23.50
2019-02-21T00:35:08.714Z,19.30
2019-02-21T00:37:38.004Z,20.55
2019-02-21T00:40:08.054Z,20.77
2019-02-21T00:42:37.340Z,22.30
2019-02-21T00:45:06.850Z,23.50
2019-02-21T00:47:36.142Z,24.12
2019-02-21T00:50:06.094Z,21.35
2019-02-21T00:52:35.377Z,22.27
2019-02-21T00:55:06.237Z,23.87
2019-02-21T00:57:35.553Z,24.67
2019-02-21T01:00:08.114Z,24.57
2019-02-21T01:02:37.411Z,22.90
2019-02-21T01:05:07.843Z,27.93
2019-02-21T01:07:37.123Z,28.60
2019-02-21T01:10:08.208Z,21.95
2019-02-21T01:12:37.495Z,21.02
2019-02-21T01:15:09.351Z,20.60
2019-02-21T01:17:38.645Z,25.90
2019-02-21T01:20:08.101Z,20.90
2019-02-21T01:22:37.377Z,24.12
2019-02-21T01:25:07.325Z,21.52
2019-02-21T01:27:36.603Z,19.48
2019-02-21T01:30:07.527Z,22.65
2019-02-21T01:32:37.069Z,25.68
2019-02-21T01:35:07.621Z,24.60
2019-02-21T01:37:37.354Z,21.85
2019-02-21T01:40:08.977Z,20.10
2019-02-21T01:42:39.228Z,21.07
2019-02-21T01:45:09.277Z,20.40
2019-02-21T01:47:38.856Z,19.70
2019-02-21T01:50:09.165Z,25.48
2019-02-21T01:52:38.445Z,23.00
2019-02-21T01:55:09.570Z,20.00
2019-02-21T01:57:38.854Z,20.68
2019-02-21T02:00:10.980Z,21.75
2019-02-21T02:02:40.728Z,17.65
2019-02-21T02:05:10.001Z,23.42
2019-02-21T02:07:39.717Z,23.70
2019-02-21T02:10:09.629Z,19.80
2019-02-21T02:12:38.913Z,18.35
2019-02-21T02:15:09.430Z,21.50
2019-02-21T02:17:38.964Z,21.40
2019-02-21T02:20:09.113Z,21.42
2019-02-21T02:22:38.403Z,25.97
2019-02-21T02:25:08.096Z,26.33
2019-02-21T02:27:37.458Z,24.25
2019-02-21T02:30:08.887Z,24.07
2019-02-21T02:32:38.494Z,24.10
2019-02-21T02:35:07.849Z,27.07
2019-02-21T02:37:37.474Z,24.65
2019-02-21T02:40:07.408Z,29.42
2019-02-21T02:42:36.694Z,28.00
2019-02-21T02:45:07.317Z,28.25
2019-02-21T02:47:36.591Z,25.05
2019-02-21T02:50:07.873Z,25.72
2019-02-21T02:52:37.147Z,27.20
2019-02-21T02:55:06.697Z,25.37
2019-02-21T02:57:37.409Z,25.12
2019-02-21T03:00:13.060Z,28.42
2019-02-21T03:02:42.674Z,27.58
2019-02-21T03:05:11.956Z,25.68
2019-02-21T03:07:41.236Z,32.40
2019-02-21T03:10:13.631Z,32.95
2019-02-21T03:12:43.246Z,25.02
2019-02-21T03:15:12.855Z,24.82
2019-02-21T03:17:42.136Z,24.15
2019-02-21T03:20:11.593Z,30.23
2019-02-21T03:22:40.862Z,24.15
2019-02-21T03:25:10.154Z,25.82
2019-02-21T03:27:39.433Z,34.23
2019-02-21T03:30:12.492Z,29.82
2019-02-21T03:32:41.869Z,24.02
2019-02-21T03:35:11.171Z,28.17
2019-02-21T03:37:40.518Z,25.15
2019-02-21T03:40:10.355Z,34.53
2019-02-21T03:42:39.892Z,25.95
2019-02-21T03:45:12.046Z,27.50
2019-02-21T03:47:41.328Z,28.25
2019-02-21T03:50:11.811Z,27.15
2019-02-21T03:52:41.075Z,26.65
2019-02-21T03:55:10.678Z,33.08
2019-02-21T03:57:40.114Z,27.87
2019-02-21T04:00:11.353Z,26.55
2019-02-21T04:02:40.696Z,27.32
2019-02-21T04:05:10.948Z,32.40
2019-02-21T04:07:40.237Z,27.37
2019-02-21T04:10:09.892Z,25.50
2019-02-21T04:12:39.165Z,27.42
2019-02-21T04:15:11.394Z,26.27
2019-02-21T04:17:40.669Z,28.57
2019-02-21T04:20:10.498Z,25.37
2019-02-21T04:22:39.859Z,28.10
2019-02-21T04:25:09.144Z,25.70
2019-02-21T04:27:38.414Z,27.85
2019-02-21T04:30:08.259Z,29.63
2019-02-21T04:32:37.866Z,25.88
2019-02-21T04:35:07.168Z,27.95
2019-02-21T04:37:36.777Z,25.05
2019-02-21T04:40:06.797Z,24.82
2019-02-21T04:42:36.409Z,29.23
2019-02-21T04:45:06.429Z,31.57
2019-02-21T04:47:35.705Z,27.40
2019-02-21T04:50:06.144Z,28.52
2019-02-21T04:52:35.432Z,26.93
2019-02-21T04:55:05.453Z,23.98
2019-02-21T04:57:34.730Z,26.37
2019-02-21T05:00:06.134Z,29.45
2019-02-21T05:02:35.414Z,26.12
2019-02-21T05:05:05.537Z,27.67
2019-02-21T05:07:34.814Z,24.70
2019-02-21T05:10:05.778Z,25.02
2019-02-21T05:12:35.049Z,23.10
2019-02-21T05:15:05.280Z,27.40
2019-02-21T05:17:34.553Z,28.00
2019-02-21T05:20:04.781Z,26.62
2019-02-21T05:22:34.064Z,28.50
2019-02-21T05:25:03.840Z,26.68
2019-02-21T05:27:33.990Z,30.52
2019-02-21T05:30:03.920Z,31.42
2019-02-21T05:32:41.374Z,33.28
2019-02-21T05:35:15.370Z,27.50
2019-02-21T05:37:46.294Z,27.77
2019-02-21T05:40:17.213Z,28.25
2019-02-21T05:42:48.126Z,27.25
2019-02-21T05:45:19.352Z,27.02
2019-02-21T05:47:50.329Z,27.22
2019-02-21T05:50:31.245Z,25.92
2019-02-21T05:53:02.158Z,28.77
2019-02-21T05:55:36.102Z,26.02
2019-02-21T05:58:08.075Z,25.43
2019-02-21T06:00:47.750Z,25.30
2019-02-21T06:03:18.964Z,25.05
2019-02-21T06:05:49.890Z,30.57
2019-02-21T06:08:29.821Z,28.87
2019-02-21T06:11:00.749Z,26.80
2019-02-21T06:13:48.343Z,33.90
2019-02-21T06:16:22.230Z,30.85
2019-02-21T06:18:55.833Z,26.90
2019-02-21T06:21:29.942Z,30.92
2019-02-21T06:24:12.662Z,32.10
2019-02-21T06:26:55.821Z,34.70
2019-02-21T06:29:27.022Z,26.12
2019-02-21T06:31:56.622Z,28.07
2019-02-21T06:34:26.230Z,23.42
2019-02-21T06:36:55.516Z,24.90
2019-02-21T06:39:25.226Z,24.67
2019-02-21T06:41:59.759Z,28.70
2019-02-21T06:44:26.409Z,29.45
2019-02-21T06:46:55.931Z,26.17
2019-02-21T06:49:32.493Z,25.37
2019-02-21T06:51:56.502Z,30.65
2019-02-21T06:54:25.785Z,21.40
2019-02-21T06:56:55.375Z,24.27
2019-02-21T06:59:24.975Z,25.97
2019-02-21T07:01:54.342Z,24.63
2019-02-21T07:04:23.618Z,25.62
2019-02-21T07:06:52.901Z,27.10
2019-02-21T07:09:22.501Z,25.43
2019-02-21T07:11:51.783Z,30.17
2019-02-21T07:14:21.057Z,32.38
2019-02-21T07:16:50.353Z,30.65
2019-02-21T07:19:19.908Z,32.28
2019-02-21T07:21:49.190Z,29.05
2019-02-21T07:24:18.487Z,27.15
2019-02-21T07:26:47.762Z,24.95
2019-02-21T07:29:17.055Z,25.82
2019-02-21T07:31:46.321Z,26.30
2019-02-21T07:34:15.606Z,29.30
2019-02-21T07:36:44.889Z,29.20
2019-02-21T07:39:19.788Z,28.90
2019-02-21T07:41:45.454Z,28.65
2019-02-21T07:44:15.810Z,28.38
2019-02-21T07:46:46.377Z,30.15
2019-02-21T07:49:15.752Z,28.80
2019-02-21T07:51:45.021Z,32.28
2019-02-21T07:54:14.306Z,32.63
2019-02-21T07:56:43.587Z,29.72
2019-02-21T07:59:12.878Z,29.82
2019-02-21T08:01:42.414Z,31.50
2019-02-21T08:04:11.697Z,28.87
2019-02-21T08:06:41.221Z,32.35
2019-02-21T08:09:10.508Z,32.23
2019-02-21T08:11:40.026Z,31.85
2019-02-21T08:14:09.655Z,30.72
2019-02-21T08:16:38.928Z,33.25
2019-02-21T08:19:08.542Z,33.95
2019-02-21T08:21:37.868Z,31.12
2019-02-21T08:24:07.460Z,36.77
2019-02-21T08:26:37.063Z,33.67
2019-02-21T08:29:06.421Z,34.80
2019-02-21T08:31:35.710Z,37.40
2019-02-21T08:34:06.635Z,40.63
2019-02-21T08:36:35.913Z,42.00
2019-02-21T08:39:07.708Z,34.33
2019-02-21T08:41:37.444Z,35.30
2019-02-21T08:44:06.729Z,34.85
2019-02-21T08:46:36.010Z,36.55
2019-02-21T08:49:05.310Z,35.45
2019-02-21T08:51:34.584Z,32.38
2019-02-21T08:54:05.660Z,32.28
2019-02-21T08:56:35.144Z,45.10
2019-02-21T08:59:04.489Z,38.28
2019-02-21T09:01:34.026Z,33.98
2019-02-21T09:04:13.333Z,33.45
2019-02-21T09:06:34.629Z,30.73
2019-02-21T09:09:05.106Z,30.90
2019-02-21T09:11:36.007Z,33.50
2019-02-21T09:14:05.570Z,35.00
2019-02-21T09:16:34.879Z,30.73
2019-02-21T09:19:04.215Z,31.50
2019-02-21T09:21:33.766Z,30.97
2019-02-21T09:24:03.377Z,39.87
2019-02-21T09:26:34.672Z,33.87
2019-02-21T09:29:04.344Z,36.93
2019-02-21T09:31:33.632Z,31.30
2019-02-21T09:34:03.231Z,32.07
2019-02-21T09:36:32.511Z,35.50
2019-02-21T09:39:01.804Z,30.13
2019-02-21T09:41:32.701Z,29.70
2019-02-21T09:44:01.995Z,31.77
2019-02-21T09:46:31.276Z,33.80
2019-02-21T09:49:02.933Z,32.67
2019-02-21T09:51:32.137Z,38.73
2019-02-21T09:54:02.572Z,36.30
2019-02-21T09:56:31.867Z,37.27
2019-02-21T09:59:01.169Z,33.50
2019-02-21T10:01:31.793Z,40.93
2019-02-21T10:04:01.075Z,37.30
2019-02-21T10:06:31.342Z,38.90
2019-02-21T10:09:00.632Z,35.37
2019-02-21T10:11:30.273Z,34.07
2019-02-21T10:13:59.562Z,38.70
2019-02-21T10:16:29.021Z,41.93
2019-02-21T10:18:58.294Z,39.27
2019-02-21T10:21:27.587Z,40.93
2019-02-21T10:23:58.054Z,41.10
2019-02-21T10:26:27.345Z,39.37
2019-02-21T10:28:56.617Z,37.03
2019-02-21T10:31:25.903Z,46.87
2019-02-21T10:33:55.487Z,43.23
2019-02-21T10:36:24.774Z,39.47
2019-02-21T10:38:54.057Z,42.33
2019-02-21T10:41:26.113Z,41.20
2019-02-21T10:43:55.384Z,47.17
2019-02-21T10:46:24.686Z,44.10
2019-02-21T10:48:53.984Z,43.33
2019-02-21T10:51:23.261Z,41.97
2019-02-21T10:53:53.117Z,46.00
2019-02-21T10:56:22.409Z,43.53
2019-02-21T10:58:51.701Z,42.70
2019-02-21T11:01:21.257Z,42.40
2019-02-21T11:03:50.545Z,40.07
2019-02-21T11:06:19.906Z,38.13
2019-02-21T11:08:49.217Z,47.33
2019-02-21T11:11:18.641Z,44.87
2019-02-21T11:13:47.957Z,48.50
2019-02-21T11:16:17.245Z,45.27
2019-02-21T11:18:46.869Z,45.70
2019-02-21T11:21:16.162Z,48.73
2019-02-21T11:23:45.457Z,43.03
2019-02-21T11:26:15.121Z,45.63
2019-02-21T11:28:47.126Z,41.23
2019-02-21T11:31:15.585Z,46.13
2019-02-21T11:33:44.875Z,41.47
2019-02-21T11:36:14.165Z,41.37
2019-02-21T11:38:43.446Z,41.07
2019-02-21T11:41:12.736Z,47.77
2019-02-21T11:43:42.098Z,41.87
2019-02-21T11:46:11.545Z,40.63
2019-02-21T11:48:41.141Z,42.63
2019-02-21T11:51:10.755Z,46.10
2019-02-21T11:53:40.052Z,39.57
2019-02-21T11:56:10.074Z,41.27
2019-02-21T11:58:39.397Z,41.20
2019-02-21T12:01:10.108Z,42.20
2019-02-21T12:03:39.917Z,43.40
2019-02-21T12:06:09.219Z,37.90
2019-02-21T12:08:38.515Z,45.83
2019-02-21T12:11:07.796Z,40.43
2019-02-21T12:13:37.094Z,42.57
2019-02-21T12:16:06.389Z,45.73
2019-02-21T12:18:35.677Z,39.87
2019-02-21T12:21:04.958Z,36.67
2019-02-21T12:23:34.268Z,46.27
2019-02-21T12:26:03.558Z,41.70
2019-02-21T12:28:32.854Z,45.77
2019-02-21T12:31:02.192Z,45.93
2019-02-21T12:33:31.525Z,48.90
2019-02-21T12:36:00.802Z,43.23
2019-02-21T12:38:30.096Z,51.33
2019-02-21T12:41:02.250Z,47.00
2019-02-21T12:43:30.635Z,44.13
2019-02-21T12:46:00.212Z,50.83
2019-02-21T12:48:29.485Z,52.50
2019-02-21T12:50:58.776Z,55.10
2019-02-21T12:53:28.403Z,60.67
2019-02-21T12:55:57.668Z,62.23
2019-02-21T12:58:27.023Z,61.87
2019-02-21T13:00:56.312Z,50.77
2019-02-21T13:03:25.607Z,45.47
2019-02-21T13:05:54.885Z,49.17
2019-02-21T13:08:24.182Z,48.07
2019-02-21T13:10:53.468Z,51.90
2019-02-21T13:13:23.003Z,41.40
2019-02-21T13:15:52.290Z,48.57
2019-02-21T13:18:21.579Z,50.90
2019-02-21T13:20:50.945Z,49.37
2019-02-21T13:23:20.224Z,45.10
2019-02-21T13:25:49.529Z,44.23
2019-02-21T13:28:19.226Z,42.60
2019-02-21T13:30:48.522Z,43.83
2019-02-21T13:33:17.796Z,41.27
2019-02-21T13:35:52.649Z,40.30
2019-02-21T13:38:18.406Z,38.40
2019-02-21T13:40:49.499Z,41.63
2019-02-21T13:43:18.934Z,48.03
2019-02-21T13:45:48.227Z,45.73
2019-02-21T13:48:17.829Z,43.50
2019-02-21T13:50:47.431Z,37.80
2019-02-21T13:53:16.728Z,35.93
2019-02-21T13:55:46.008Z,36.73
2019-02-21T13:58:15.285Z,43.17
2019-02-21T14:00:44.668Z,44.73
2019-02-21T14:03:14.053Z,42.17
2019-02-21T14:05:43.646Z,37.87
2019-02-21T14:08:12.954Z,37.70
2019-02-21T14:10:42.264Z,34.93
2019-02-21T14:13:11.964Z,37.27
2019-02-21T14:15:41.344Z,36.53
2019-02-21T14:18:12.067Z,33.27
2019-02-21T14:20:45.275Z,32.83
2019-02-21T14:23:12.589Z,34.43
2019-02-21T14:25:41.887Z,29.70
2019-02-21T14:28:11.446Z,28.00
2019-02-21T14:30:40.745Z,33.50
2019-02-21T14:33:10.024Z,32.10
2019-02-21T14:35:39.326Z,29.93
2019-02-21T14:38:08.864Z,33.57
2019-02-21T14:40:38.471Z,30.60
2019-02-21T14:43:07.766Z,31.70
2019-02-21T14:45:37.369Z,28.43
2019-02-21T14:48:06.664Z,31.70
2019-02-21T14:50:36.291Z,42.27
2019-02-21T14:53:06.931Z,30.93
2019-02-21T14:55:36.217Z,36.27
2019-02-21T14:58:05.497Z,31.03
2019-02-21T15:00:34.785Z,32.60
2019-02-21T15:03:04.145Z,34.50
2019-02-21T15:05:33.725Z,38.70
2019-02-21T15:08:03.014Z,45.73
2019-02-21T15:10:32.315Z,36.30
2019-02-21T15:13:01.596Z,28.87
2019-02-21T15:15:30.889Z,36.57
2019-02-21T15:18:07.441Z,34.17
2019-02-21T15:20:36.803Z,31.07
2019-02-21T15:23:02.797Z,33.90
2019-02-21T15:25:32.336Z,37.03
2019-02-21T15:28:01.627Z,31.87
2019-02-21T15:30:30.917Z,39.20
2019-02-21T15:33:00.206Z,68.97
2019-02-21T15:35:29.501Z,50.13
2019-02-21T15:38:00.589Z,41.53
2019-02-21T15:40:30.077Z,31.03
2019-02-21T15:43:00.515Z,32.70
2019-02-21T15:45:30.179Z,33.17
2019-02-21T15:47:59.746Z,26.40
2019-02-21T15:50:29.098Z,35.63
2019-02-21T15:52:58.937Z,27.87
2019-02-21T15:55:28.234Z,25.57
2019-02-21T15:58:03.964Z,27.60
2019-02-21T16:00:28.850Z,27.50
2019-02-21T16:02:58.145Z,27.10
2019-02-21T16:05:27.497Z,25.80
2019-02-21T16:07:56.794Z,27.90
2019-02-21T16:10:27.426Z,27.87
2019-02-21T16:12:57.124Z,27.97
2019-02-21T16:15:26.781Z,27.83
2019-02-21T16:17:56.061Z,43.90
2019-02-21T16:20:25.360Z,32.37
2019-02-21T16:22:54.648Z,28.23
2019-02-21T16:25:26.640Z,34.67
2019-02-21T16:27:56.981Z,80.70
2019-02-21T16:30:26.265Z,37.93
2019-02-21T16:32:55.560Z,55.07
2019-02-21T16:35:27.210Z,34.63
2019-02-21T16:37:55.832Z,30.10
2019-02-21T16:40:25.108Z,30.03
2019-02-21T16:42:54.409Z,49.53
2019-02-21T16:45:23.763Z,40.80
2019-02-21T16:47:53.054Z,36.33
2019-02-21T16:50:29.597Z,36.73
2019-02-21T16:52:53.418Z,34.27
2019-02-21T16:55:24.021Z,32.03
2019-02-21T16:57:53.591Z,29.07
2019-02-21T17:00:24.245Z,32.97
2019-02-21T17:02:53.797Z,39.03
2019-02-21T17:05:23.246Z,33.80
2019-02-21T17:07:52.536Z,33.77
2019-02-21T17:10:21.826Z,39.00
2019-02-21T17:12:51.418Z,35.50
2019-02-21T17:15:20.701Z,39.33
2019-02-21T17:17:49.990Z,38.10
2019-02-21T17:20:20.917Z,42.10
2019-02-21T17:22:50.285Z,35.93
2019-02-21T17:25:19.566Z,41.17
2019-02-21T17:27:51.817Z,43.33
2019-02-21T17:30:21.951Z,42.30
2019-02-21T17:32:51.246Z,51.97
2019-02-21T17:35:20.863Z,45.60
2019-02-21T17:37:50.461Z,39.57
2019-02-21T17:40:24.934Z,38.57
2019-02-21T17:42:54.248Z,40.30
2019-02-21T17:45:23.798Z,43.00
2019-02-21T17:47:53.408Z,35.43
2019-02-21T17:50:22.705Z,38.30
2019-02-21T17:52:52.313Z,37.53
2019-02-21T17:55:21.590Z,42.37
2019-02-21T17:57:50.898Z,58.43
2019-02-21T18:00:26.719Z,38.10
2019-02-21T18:02:56.278Z,37.90
2019-02-21T18:05:25.922Z,59.37
2019-02-21T18:07:55.223Z,47.10
2019-02-21T18:10:24.796Z,45.70
2019-02-21T18:12:54.081Z,47.73
2019-02-21T18:15:23.443Z,51.03
2019-02-21T18:17:52.775Z,65.70
2019-02-21T18:20:22.109Z,108.23
2019-02-21T18:22:51.399Z,53.17
2019-02-21T18:25:42.722Z,41.50
2019-02-21T18:28:12.020Z,41.13
2019-02-21T18:30:41.302Z,43.30
2019-02-21T18:33:10.617Z,43.57
2019-02-21T18:35:39.906Z,42.43
2019-02-21T18:38:09.417Z,43.73
2019-02-21T18:40:38.717Z,38.40
2019-02-21T18:43:08.003Z,50.83
2019-02-21T18:45:37.298Z,42.53
2019-02-21T18:48:06.855Z,47.73
2019-02-21T18:50:38.473Z,44.37
2019-02-21T18:53:07.228Z,43.93
2019-02-21T18:55:36.804Z,43.80
2019-02-21T18:58:06.390Z,44.93
2019-02-21T19:00:35.688Z,47.20
2019-02-21T19:03:04.970Z,47.63
2019-02-21T19:05:36.250Z,48.60
2019-02-21T19:08:06.228Z,50.43
2019-02-21T19:10:36.177Z,56.87
2019-02-21T19:13:07.618Z,52.20
2019-02-21T19:15:36.508Z,48.63
2019-02-21T19:18:05.876Z,61.93
2019-02-21T19:20:35.153Z,57.20
2019-02-21T19:23:04.509Z,53.40
2019-02-21T19:25:34.131Z,53.43
2019-02-21T19:28:03.418Z,81.37
2019-02-21T19:30:45.180Z,89.03
2019-02-21T19:33:14.638Z,64.90
2019-02-21T19:35:43.928Z,59.60
2019-02-21T19:38:13.276Z,67.60
2019-02-21T19:40:42.801Z,70.73
2019-02-21T19:43:12.361Z,70.57
2019-02-21T19:45:41.700Z,87.40
2019-02-21T19:48:10.977Z,56.20
2019-02-21T19:50:40.334Z,61.77
2019-02-21T19:53:09.715Z,63.67
2019-02-21T19:55:39.182Z,66.90
2019-02-21T19:58:08.458Z,66.33
2019-02-21T20:00:38.065Z,71.73
2019-02-21T20:03:07.698Z,65.70
2019-02-21T20:05:36.988Z,59.30
2019-02-21T20:08:08.869Z,60.13
2019-02-21T20:10:38.021Z,67.03
2019-02-21T20:13:08.949Z,64.43
2019-02-21T20:15:38.673Z,60.67
2019-02-21T20:18:07.965Z,62.00
2019-02-21T20:20:37.256Z,58.30
2019-02-21T20:23:06.893Z,63.90
2019-02-21T20:25:36.501Z,76.73
2019-02-21T20:28:06.913Z,65.97
2019-02-21T20:30:36.287Z,54.57
2019-02-21T20:33:05.571Z,57.17
2019-02-21T20:35:34.862Z,72.77
2019-02-21T20:38:04.153Z,57.83
2019-02-21T20:40:33.441Z,60.93
2019-02-21T20:43:02.743Z,61.13
2019-02-21T20:45:32.102Z,61.70
2019-02-21T20:48:01.403Z,61.03
2019-02-21T20:50:30.939Z,60.17
2019-02-21T20:53:02.774Z,55.53
2019-02-21T20:55:31.214Z,54.40
2019-02-21T20:58:00.506Z,55.57
2019-02-21T21:00:30.019Z,57.80
2019-02-21T21:02:59.311Z,64.60
2019-02-21T21:05:29.035Z,62.10
2019-02-21T21:07:58.373Z,62.30
2019-02-21T21:10:27.821Z,62.03
2019-02-21T21:12:57.118Z,57.27
2019-02-21T21:15:26.715Z,55.97
2019-02-21T21:17:56.151Z,58.27
2019-02-21T21:20:26.131Z,64.03
2019-02-21T21:22:55.770Z,55.60
2019-02-21T21:25:25.109Z,63.27
2019-02-21T21:27:54.418Z,61.40
2019-02-21T21:30:23.995Z,60.00
2019-02-21T21:32:53.559Z,60.07
2019-02-21T21:35:22.846Z,66.07
2019-02-21T21:37:52.141Z,68.33
2019-02-21T21:40:21.446Z,65.97
2019-02-21T21:42:50.793Z,65.87
2019-02-21T21:45:20.254Z,66.77
2019-02-21T21:47:49.551Z,72.73
2019-02-21T21:50:20.211Z,69.23
2019-02-21T21:52:49.492Z,72.87
2019-02-21T21:55:18.791Z,70.53
2019-02-21T21:57:48.072Z,76.27
2019-02-21T22:00:22.718Z,75.33
2019-02-21T22:02:52.020Z,82.80
2019-02-21T22:05:21.293Z,82.90
2019-02-21T22:07:50.677Z,90.07
2019-02-21T22:10:19.954Z,82.07
2019-02-21T22:12:49.652Z,92.27
2019-02-21T22:15:20.577Z,94.63
2019-02-21T22:17:49.936Z,111.17
2019-02-21T22:20:19.230Z,99.87
2019-02-21T22:22:48.527Z,101.83
2019-02-21T22:25:17.811Z,94.00
2019-02-21T22:27:47.097Z,96.07
2019-02-21T22:30:18.016Z,101.17
2019-02-21T22:32:47.323Z,108.73
2019-02-21T22:35:16.617Z,114.83
2019-02-21T22:37:46.018Z,108.97
2019-02-21T22:40:17.422Z,107.07
2019-02-21T22:42:46.713Z,116.10
2019-02-21T22:45:16.088Z,104.43
2019-02-21T22:47:45.377Z,101.87
2019-02-21T22:50:16.414Z,119.03
2019-02-21T22:52:45.713Z,116.57
2019-02-21T22:55:15.024Z,121.20
2019-02-21T22:57:44.376Z,134.70
2019-02-21T23:00:36.382Z,132.53
2019-02-21T23:03:10.442Z,135.27
2019-02-21T23:05:54.895Z,133.93
2019-02-21T23:08:42.572Z,135.47
2019-02-21T23:11:12.321Z,139.17
2019-02-21T23:13:41.794Z,132.10
2019-02-21T23:16:11.106Z,128.67
2019-02-21T23:18:40.399Z,139.40
2019-02-21T23:21:09.781Z,136.50
2019-02-21T23:23:39.114Z,129.10
2019-02-21T23:26:08.803Z,143.77
2019-02-21T23:28:38.154Z,136.63
2019-02-21T23:31:07.708Z,123.87
2019-02-21T23:33:47.644Z,122.57
2019-02-21T23:36:16.941Z,123.60
2019-02-21T23:38:46.216Z,132.23
2019-02-21T23:41:15.509Z,127.13
2019-02-21T23:43:47.196Z,143.87
2019-02-21T23:46:15.881Z,130.50
2019-02-21T23:48:45.303Z,138.40
2019-02-21T23:51:14.615Z,134.47
2019-02-21T23:53:43.901Z,130.20
2019-02-21T23:56:13.513Z,138.53
2019-02-21T23:58:42.803Z,131.10
